createdAt,value
2022-08-19T00:04:42.972Z,82.14
2022-08-19T00:09:45.699Z,82.66
2022-08-19T00:14:49.865Z,82.95
2022-08-19T00:19:52.619Z,83.69
2022-08-19T00:24:55.326Z,84.18
2022-08-19T00:30:02.913Z,84.86
2022-08-19T00:35:06.329Z,84.78
2022-08-19T00:40:10.272Z,85.23
2022-08-19T00:45:18.316Z,85.69
2022-08-19T00:50:22.001Z,85.92
2022-08-19T00:55:29.690Z,85.87
2022-08-19T01:00:37.504Z,85.53
2022-08-19T01:05:42.327Z,85.65
2022-08-19T01:10:48.345Z,86.45
2022-08-19T01:15:56.444Z,86.60
2022-08-19T01:21:16.957Z,86.93
2022-08-19T01:26:25.360Z,87.08
2022-08-19T01:31:32.681Z,86.99
2022-08-19T01:36:38.308Z,87.00
2022-08-19T01:41:42.618Z,87.53
2022-08-19T01:46:45.591Z,87.88
2022-08-19T01:51:50.395Z,87.95
2022-08-19T01:56:55.560Z,87.96
2022-08-19T02:01:58.467Z,88.73
2022-08-19T02:07:01.250Z,88.54
2022-08-19T02:12:05.669Z,88.52
2022-08-19T02:17:08.345Z,88.27
2022-08-19T02:22:11.104Z,88.65
2022-08-19T02:27:15.262Z,88.65
2022-08-19T02:32:19.767Z,88.42
2022-08-19T02:37:39.975Z,88.82
2022-08-19T02:42:44.097Z,88.43
2022-08-19T02:47:46.875Z,88.65
2022-08-19T02:52:49.720Z,89.38
2022-08-19T02:57:53.833Z,89.15
2022-08-19T03:02:56.952Z,89.34
2022-08-19T03:07:59.945Z,89.18
2022-08-19T03:13:04.945Z,89.61
2022-08-19T03:18:07.900Z,89.23
2022-08-19T03:23:12.310Z,89.31
2022-08-19T03:28:16.967Z,89.40
2022-08-19T03:33:28.494Z,89.37
2022-08-19T03:38:31.476Z,89.56
2022-08-19T03:43:36.673Z,89.41
2022-08-19T03:48:41.002Z,90.28
2022-08-19T03:53:43.689Z,90.91
2022-08-19T03:58:48.257Z,90.43
2022-08-19T04:03:51.223Z,90.02
2022-08-19T04:08:55.787Z,90.08
2022-08-19T04:14:00.400Z,90.33
2022-08-19T04:19:08.472Z,90.40
2022-08-19T04:24:11.568Z,90.34
2022-08-19T04:29:17.781Z,90.68
2022-08-19T04:34:23.451Z,90.75
2022-08-19T04:39:44.520Z,91.24
2022-08-19T04:44:48.767Z,91.29
2022-08-19T04:49:51.425Z,91.29
2022-08-19T04:54:56.273Z,91.54
2022-08-19T05:00:00.375Z,91.60
2022-08-19T05:05:03.189Z,91.38
2022-08-19T05:10:07.498Z,91.64
2022-08-19T05:15:12.599Z,91.49
2022-08-19T05:20:32.825Z,91.30
2022-08-19T05:25:35.572Z,91.88
2022-08-19T05:30:47.255Z,91.44
2022-08-19T05:35:51.047Z,91.51
2022-08-19T05:40:53.868Z,91.40
2022-08-19T05:45:58.057Z,92.13
2022-08-19T05:51:06.388Z,91.87
2022-08-19T05:56:10.219Z,92.36
2022-08-19T06:01:16.613Z,91.83
2022-08-19T06:06:19.958Z,92.26
2022-08-19T06:11:25.059Z,91.96
2022-08-19T06:16:31.071Z,92.44
2022-08-19T06:21:33.896Z,92.08
2022-08-19T06:26:38.252Z,92.44
2022-08-19T06:31:45.889Z,92.13
2022-08-19T06:36:52.102Z,92.22
2022-08-19T06:41:58.657Z,92.15
2022-08-19T06:47:14.219Z,92.67
2022-08-19T06:52:17.993Z,92.89
2022-08-19T06:57:20.706Z,93.06
2022-08-19T07:02:27.271Z,93.19
2022-08-19T07:07:29.990Z,93.39
2022-08-19T07:12:35.790Z,93.41
2022-08-19T07:17:41.787Z,93.65
2022-08-19T07:22:44.848Z,93.89
2022-08-19T07:27:48.705Z,94.09
2022-08-19T07:32:58.854Z,94.69
2022-08-19T07:38:03.611Z,94.85
2022-08-19T07:43:06.381Z,95.06
2022-08-19T07:48:11.461Z,95.13
2022-08-19T07:53:14.363Z,95.27
2022-08-19T07:58:20.207Z,94.84
2022-08-19T08:03:45.465Z,94.84
2022-08-19T08:09:06.946Z,94.66
2022-08-19T08:14:34.886Z,94.78
2022-08-19T08:19:35.182Z,95.58
2022-08-19T08:24:38.238Z,95.12
2022-08-19T08:29:43.234Z,95.47
2022-08-19T08:34:51.732Z,95.04
2022-08-19T08:39:55.485Z,95.46
2022-08-19T08:45:02.187Z,95.01
2022-08-19T08:50:07.963Z,95.31
2022-08-19T08:55:13.916Z,94.81
2022-08-19T09:00:20.682Z,95.02
2022-08-19T09:05:26.284Z,94.99
2022-08-19T09:10:32.795Z,94.63
2022-08-19T09:15:38.875Z,94.53
2022-08-19T09:20:43.218Z,94.88
2022-08-19T09:25:46.176Z,95.00
2022-08-19T09:30:48.900Z,94.55
2022-08-19T09:36:04.423Z,94.25
2022-08-19T09:41:14.515Z,94.74
2022-08-19T09:46:19.090Z,94.60
2022-08-19T09:51:25.718Z,94.57
2022-08-19T09:56:28.513Z,93.97
2022-08-19T10:01:32.710Z,92.31
2022-08-19T10:06:46.486Z,90.90
2022-08-19T10:11:54.995Z,90.76
2022-08-19T10:16:59.104Z,91.95
2022-08-19T10:22:05.316Z,92.45
2022-08-19T10:27:14.182Z,92.91
2022-08-19T10:32:18.865Z,92.68
2022-08-19T10:37:44.942Z,93.38
2022-08-19T10:42:59.967Z,92.86
2022-08-19T10:48:02.661Z,92.44
2022-08-19T10:53:09.841Z,92.45
2022-08-19T10:58:14.406Z,91.61
2022-08-19T11:03:17.186Z,90.03
2022-08-19T11:08:23.303Z,89.81
2022-08-19T11:13:26.756Z,89.70
2022-08-19T11:18:29.826Z,89.16
2022-08-19T11:23:33.960Z,88.93
2022-08-19T11:28:37.143Z,89.48
2022-08-19T11:33:39.872Z,89.88
2022-08-19T11:38:44.346Z,90.07
2022-08-19T11:43:47.171Z,90.40
2022-08-19T11:48:50.651Z,90.06
2022-08-19T11:53:55.159Z,89.42
2022-08-19T11:58:58.619Z,88.17
2022-08-19T12:04:01.880Z,86.38
2022-08-19T12:09:08.495Z,85.33
2022-08-19T12:14:15.075Z,84.17
2022-08-19T12:19:22.439Z,83.88
2022-08-19T12:24:27.199Z,81.57
2022-08-19T12:29:30.645Z,82.44
2022-08-19T12:34:34.643Z,81.08
2022-08-19T12:39:40.527Z,82.37
2022-08-19T12:44:44.798Z,82.85
2022-08-19T12:49:54.622Z,83.63
2022-08-19T12:55:00.111Z,84.07
2022-08-19T13:00:08.972Z,83.54
2022-08-19T13:05:14.248Z,83.51
2022-08-19T13:10:21.128Z,84.17
2022-08-19T13:15:25.000Z,84.60
2022-08-19T13:20:27.907Z,84.68
2022-08-19T13:25:32.206Z,84.84
2022-08-19T13:30:52.448Z,84.38
2022-08-19T13:36:01.281Z,83.15
2022-08-19T13:41:12.177Z,83.45
2022-08-19T13:46:17.620Z,83.05
2022-08-19T13:51:20.577Z,82.42
2022-08-19T13:56:26.398Z,82.89
2022-08-19T14:01:31.423Z,82.91
2022-08-19T14:06:34.392Z,82.55
2022-08-19T14:11:39.059Z,82.11
2022-08-19T14:16:42.081Z,82.01
2022-08-19T14:21:45.037Z,82.41
2022-08-19T14:26:49.794Z,82.56
2022-08-19T14:31:52.682Z,82.57
2022-08-19T14:36:55.646Z,82.64
2022-08-19T14:42:00.047Z,82.88
2022-08-19T14:47:04.165Z,82.86
2022-08-19T14:52:07.700Z,82.79
2022-08-19T14:57:13.406Z,82.93
2022-08-19T15:02:33.620Z,83.14
2022-08-19T15:07:37.893Z,82.74
2022-08-19T15:12:43.478Z,82.81
2022-08-19T15:17:47.356Z,82.92
2022-08-19T15:22:50.227Z,83.11
2022-08-19T15:27:54.728Z,83.45
2022-08-19T15:32:59.771Z,83.73
2022-08-19T15:38:02.563Z,83.93
2022-08-19T15:43:06.879Z,84.19
2022-08-19T15:48:09.687Z,83.68
2022-08-19T15:53:12.727Z,83.69
2022-08-19T15:58:34.158Z,83.58
2022-08-19T16:03:54.710Z,83.64
2022-08-19T16:08:59.420Z,83.41
2022-08-19T16:14:04.159Z,83.43
2022-08-19T16:19:11.807Z,82.99
2022-08-19T16:24:16.618Z,83.24
2022-08-19T16:29:33.844Z,83.24
2022-08-19T16:34:38.007Z,82.75
2022-08-19T16:39:41.276Z,82.75
2022-08-19T16:44:47.779Z,82.55
2022-08-19T16:49:52.990Z,82.23
2022-08-19T16:54:58.264Z,82.11
2022-08-19T17:00:05.368Z,82.03
2022-08-19T17:05:10.025Z,82.53
2022-08-19T17:10:12.810Z,82.70
2022-08-19T17:15:16.971Z,82.60
2022-08-19T17:20:20.283Z,82.35
2022-08-19T17:25:23.110Z,82.21
2022-08-19T17:30:27.485Z,82.45
2022-08-19T17:35:30.404Z,82.29
2022-08-19T17:40:33.473Z,82.22
2022-08-19T17:45:38.732Z,81.80
2022-08-19T17:50:41.674Z,81.82
2022-08-19T17:55:44.995Z,82.00
2022-08-19T18:00:54.463Z,82.03
2022-08-19T18:05:58.558Z,81.90
2022-08-19T18:11:01.397Z,81.76
2022-08-19T18:16:06.953Z,81.86
2022-08-19T18:21:10.477Z,81.91
2022-08-19T18:26:13.527Z,82.19
2022-08-19T18:31:18.021Z,82.37
2022-08-19T18:36:37.727Z,82.54
2022-08-19T18:42:01.958Z,82.60
2022-08-19T18:47:23.454Z,82.77
2022-08-19T18:52:27.230Z,82.98
2022-08-19T18:57:30.136Z,82.95
2022-08-19T19:02:38.872Z,83.03
2022-08-19T19:07:41.726Z,83.11
2022-08-19T19:12:45.587Z,83.42
2022-08-19T19:17:50.025Z,83.81
2022-08-19T19:22:53.694Z,83.62
2022-08-19T19:28:01.158Z,84.36
2022-08-19T19:33:05.929Z,84.00
2022-08-19T19:38:08.636Z,84.35
2022-08-19T19:43:11.350Z,84.19
2022-08-19T19:48:16.442Z,84.53
2022-08-19T19:53:19.343Z,84.24
2022-08-19T19:58:28.354Z,84.35
2022-08-19T20:03:33.646Z,84.43
2022-08-19T20:08:54.079Z,84.69
2022-08-19T20:13:57.162Z,84.89
2022-08-19T20:19:02.646Z,85.25
2022-08-19T20:24:08.982Z,85.28
2022-08-19T20:29:38.439Z,85.58
2022-08-19T20:34:37.173Z,85.99
2022-08-19T20:39:39.953Z,86.35
2022-08-19T20:44:42.718Z,86.59
2022-08-19T20:49:47.587Z,86.33
2022-08-19T20:54:50.283Z,86.08
2022-08-19T20:59:53.008Z,85.80
2022-08-19T21:05:00.359Z,86.11
2022-08-19T21:10:03.183Z,86.13
2022-08-19T21:15:08.736Z,86.24
2022-08-19T21:20:13.470Z,86.72
2022-08-19T21:25:17.066Z,86.54
2022-08-19T21:30:19.976Z,86.82
2022-08-19T21:35:24.417Z,87.03
2022-08-19T21:40:28.028Z,86.33
2022-08-19T21:45:31.297Z,86.45
2022-08-19T21:50:35.599Z,86.02
2022-08-19T21:55:39.069Z,86.09
2022-08-19T22:00:42.027Z,86.75
2022-08-19T22:05:46.168Z,86.41
2022-08-19T22:10:49.835Z,86.51
2022-08-19T22:15:55.260Z,86.72
2022-08-19T22:20:59.359Z,87.07
2022-08-19T22:26:02.393Z,87.43
2022-08-19T22:31:05.841Z,87.05
2022-08-19T22:36:10.825Z,86.71
2022-08-19T22:41:13.512Z,86.46
2022-08-19T22:46:17.314Z,86.50
2022-08-19T22:51:39.564Z,86.95
2022-08-19T22:56:43.332Z,87.41
2022-08-19T23:01:46.269Z,87.77
2022-08-19T23:06:52.796Z,87.70
2022-08-19T23:11:55.566Z,88.41
2022-08-19T23:16:59.246Z,88.02
2022-08-19T23:22:05.192Z,88.33
2022-08-19T23:27:25.571Z,89.04
2022-08-19T23:32:28.322Z,88.78
2022-08-19T23:37:32.482Z,88.66
2022-08-19T23:42:35.340Z,88.59
2022-08-19T23:47:41.270Z,88.49
2022-08-19T23:52:49.704Z,89.28
2022-08-19T23:57:52.449Z,89.67
